sensor_id;sensor_type;location;lat;lon;timestamp;pressure;altitude;pressure_sealevel;temperature;humidity
35918;BME280;22011;59.912;30.300;2023-04-19T00:02:18;103182.06;;;7.20;33.25
35918;BME280;22011;59.912;30.300;2023-04-19T00:04:45;103175.06;;;7.19;33.57
35918;BME280;22011;59.912;30.300;2023-04-19T00:07:13;103177.72;;;7.19;33.21
35918;BME280;22011;59.912;30.300;2023-04-19T00:09:42;103178.81;;;7.15;33.45
35918;BME280;22011;59.912;30.300;2023-04-19T00:12:09;103180.00;;;7.09;34.00
35918;BME280;22011;59.912;30.300;2023-04-19T00:14:38;103188.81;;;7.10;33.94
35918;BME280;22011;59.912;30.300;2023-04-19T00:17:05;103183.59;;;7.08;34.02
35918;BME280;22011;59.912;30.300;2023-04-19T00:19:33;103185.63;;;7.03;34.20
35918;BME280;22011;59.912;30.300;2023-04-19T00:22:00;103193.84;;;6.99;34.60
35918;BME280;22011;59.912;30.300;2023-04-19T00:24:28;103198.69;;;6.91;34.70
35918;BME280;22011;59.912;30.300;2023-04-19T00:26:55;103199.72;;;6.88;34.87
35918;BME280;22011;59.912;30.300;2023-04-19T00:29:24;103198.84;;;6.87;35.38
35918;BME280;22011;59.912;30.300;2023-04-19T00:31:53;103202.44;;;6.86;35.41
35918;BME280;22011;59.912;30.300;2023-04-19T00:34:20;103202.78;;;6.80;35.33
35918;BME280;22011;59.912;30.300;2023-04-19T00:36:48;103202.59;;;6.83;35.74
35918;BME280;22011;59.912;30.300;2023-04-19T00:39:15;103205.41;;;6.80;35.76
35918;BME280;22011;59.912;30.300;2023-04-19T00:41:43;103209.88;;;6.80;36.03
35918;BME280;22011;59.912;30.300;2023-04-19T00:44:10;103206.28;;;6.81;35.75
35918;BME280;22011;59.912;30.300;2023-04-19T00:46:38;103207.06;;;6.83;35.70
35918;BME280;22011;59.912;30.300;2023-04-19T00:49:07;103200.91;;;6.82;36.20
35918;BME280;22011;59.912;30.300;2023-04-19T00:51:35;103202.00;;;6.78;35.87
35918;BME280;22011;59.912;30.300;2023-04-19T00:54:03;103211.81;;;6.76;35.62
35918;BME280;22011;59.912;30.300;2023-04-19T00:56:33;103207.47;;;6.75;36.38
35918;BME280;22011;59.912;30.300;2023-04-19T00:59:01;103200.75;;;6.68;36.26
35918;BME280;22011;59.912;30.300;2023-04-19T01:01:30;103199.06;;;6.67;36.54
35918;BME280;22011;59.912;30.300;2023-04-19T01:03:57;103196.47;;;6.66;36.25
35918;BME280;22011;59.912;30.300;2023-04-19T01:06:27;103203.34;;;6.70;36.58
35918;BME280;22011;59.912;30.300;2023-04-19T01:08:55;103196.41;;;6.67;36.71
35918;BME280;22011;59.912;30.300;2023-04-19T01:11:22;103204.59;;;6.63;36.89
35918;BME280;22011;59.912;30.300;2023-04-19T01:13:50;103201.00;;;6.64;36.62
35918;BME280;22011;59.912;30.300;2023-04-19T01:16:18;103210.06;;;6.60;36.81
35918;BME280;22011;59.912;30.300;2023-04-19T01:18:45;103208.25;;;6.60;36.98
35918;BME280;22011;59.912;30.300;2023-04-19T01:21:13;103208.56;;;6.54;37.26
35918;BME280;22011;59.912;30.300;2023-04-19T01:23:42;103215.50;;;6.56;37.84
35918;BME280;22011;59.912;30.300;2023-04-19T01:26:09;103213.34;;;6.47;37.81
35918;BME280;22011;59.912;30.300;2023-04-19T01:28:37;103209.19;;;6.42;38.13
35918;BME280;22011;59.912;30.300;2023-04-19T01:31:05;103219.88;;;6.40;38.52
35918;BME280;22011;59.912;30.300;2023-04-19T01:33:32;103213.88;;;6.37;38.83
35918;BME280;22011;59.912;30.300;2023-04-19T01:36:00;103212.16;;;6.36;38.77
35918;BME280;22011;59.912;30.300;2023-04-19T01:38:27;103217.47;;;6.36;39.05
35918;BME280;22011;59.912;30.300;2023-04-19T01:40:56;103220.03;;;6.37;39.29
35918;BME280;22011;59.912;30.300;2023-04-19T01:43:24;103225.41;;;6.36;39.48
35918;BME280;22011;59.912;30.300;2023-04-19T01:45:51;103219.47;;;6.31;39.90
35918;BME280;22011;59.912;30.300;2023-04-19T01:48:19;103217.84;;;6.28;40.19
35918;BME280;22011;59.912;30.300;2023-04-19T01:50:46;103214.50;;;6.24;40.36
35918;BME280;22011;59.912;30.300;2023-04-19T01:53:14;103219.19;;;6.19;40.82
35918;BME280;22011;59.912;30.300;2023-04-19T01:55:41;103212.19;;;6.18;40.66
35918;BME280;22011;59.912;30.300;2023-04-19T01:58:10;103218.94;;;6.24;41.17
35918;BME280;22011;59.912;30.300;2023-04-19T02:00:38;103216.47;;;6.21;41.36
35918;BME280;22011;59.912;30.300;2023-04-19T02:03:05;103218.41;;;6.17;41.68
35918;BME280;22011;59.912;30.300;2023-04-19T02:05:33;103209.69;;;6.15;41.77
35918;BME280;22011;59.912;30.300;2023-04-19T02:08:00;103209.78;;;6.14;41.96
35918;BME280;22011;59.912;30.300;2023-04-19T02:10:30;103215.59;;;6.03;42.45
35918;BME280;22011;59.912;30.300;2023-04-19T02:12:57;103220.41;;;5.95;43.09
35918;BME280;22011;59.912;30.300;2023-04-19T02:15:26;103222.34;;;5.92;43.30
35918;BME280;22011;59.912;30.300;2023-04-19T02:17:54;103207.34;;;5.92;43.08
35918;BME280;22011;59.912;30.300;2023-04-19T02:20:21;103216.06;;;5.94;43.39
35918;BME280;22011;59.912;30.300;2023-04-19T02:22:49;103205.53;;;5.93;43.63
35918;BME280;22011;59.912;30.300;2023-04-19T02:25:17;103214.41;;;5.92;43.73
35918;BME280;22011;59.912;30.300;2023-04-19T02:27:45;103199.75;;;5.84;44.05
35918;BME280;22011;59.912;30.300;2023-04-19T02:30:13;103202.47;;;5.83;44.28
35918;BME280;22011;59.912;30.300;2023-04-19T02:32:42;103211.03;;;5.88;44.75
35918;BME280;22011;59.912;30.300;2023-04-19T02:35:11;103206.03;;;5.82;44.65
35918;BME280;22011;59.912;30.300;2023-04-19T02:37:39;103210.53;;;5.80;44.76
35918;BME280;22011;59.912;30.300;2023-04-19T02:40:07;103210.63;;;5.78;45.06
35918;BME280;22011;59.912;30.300;2023-04-19T02:42:35;103208.69;;;5.82;45.00
35918;BME280;22011;59.912;30.300;2023-04-19T02:45:02;103204.25;;;5.82;44.75
35918;BME280;22011;59.912;30.300;2023-04-19T02:47:30;103206.97;;;5.81;44.96
35918;BME280;22011;59.912;30.300;2023-04-19T02:50:00;103194.66;;;5.80;45.34
35918;BME280;22011;59.912;30.300;2023-04-19T02:52:29;103201.69;;;5.81;45.71
35918;BME280;22011;59.912;30.300;2023-04-19T02:54:57;103206.97;;;5.81;45.35
35918;BME280;22011;59.912;30.300;2023-04-19T02:57:25;103207.81;;;5.81;45.75
35918;BME280;22011;59.912;30.300;2023-04-19T02:59:53;103203.38;;;5.82;45.90
35918;BME280;22011;59.912;30.300;2023-04-19T03:02:20;103199.81;;;5.83;46.17
35918;BME280;22011;59.912;30.300;2023-04-19T03:04:48;103193.81;;;5.79;46.55
35918;BME280;22011;59.912;30.300;2023-04-19T03:07:17;103206.03;;;5.82;46.66
35918;BME280;22011;59.912;30.300;2023-04-19T03:09:44;103214.56;;;5.70;46.79
35918;BME280;22011;59.912;30.300;2023-04-19T03:12:12;103211.28;;;5.65;47.17
35918;BME280;22011;59.912;30.300;2023-04-19T03:14:41;103208.63;;;5.65;47.28
35918;BME280;22011;59.912;30.300;2023-04-19T03:17:09;103208.00;;;5.59;47.64
35918;BME280;22011;59.912;30.300;2023-04-19T03:19:36;103207.22;;;5.57;48.02
35918;BME280;22011;59.912;30.300;2023-04-19T03:22:05;103214.44;;;5.54;48.21
35918;BME280;22011;59.912;30.300;2023-04-19T03:24:34;103210.72;;;5.58;48.34
35918;BME280;22011;59.912;30.300;2023-04-19T03:27:14;103212.50;;;5.57;48.40
35918;BME280;22011;59.912;30.300;2023-04-19T03:29:44;103208.94;;;5.58;48.62
35918;BME280;22011;59.912;30.300;2023-04-19T03:32:12;103212.28;;;5.62;48.35
35918;BME280;22011;59.912;30.300;2023-04-19T03:34:41;103212.13;;;5.65;48.93
35918;BME280;22011;59.912;30.300;2023-04-19T03:37:08;103217.34;;;5.67;48.53
35918;BME280;22011;59.912;30.300;2023-04-19T03:39:37;103214.56;;;5.70;48.77
35918;BME280;22011;59.912;30.300;2023-04-19T03:42:09;103213.00;;;5.66;49.12
35918;BME280;22011;59.912;30.300;2023-04-19T03:44:59;103211.97;;;5.87;47.16
35918;BME280;22011;59.912;30.300;2023-04-19T03:47:29;103214.56;;;5.70;48.75
35918;BME280;22011;59.912;30.300;2023-04-19T03:49:57;103205.06;;;5.66;48.92
35918;BME280;22011;59.912;30.300;2023-04-19T03:52:26;103209.56;;;5.64;49.28
35918;BME280;22011;59.912;30.300;2023-04-19T03:54:55;103215.78;;;5.63;49.77
35918;BME280;22011;59.912;30.300;2023-04-19T03:57:36;103209.41;;;5.67;49.69
35918;BME280;22011;59.912;30.300;2023-04-19T04:00:14;103207.50;;;5.70;49.72
35918;BME280;22011;59.912;30.300;2023-04-19T04:02:41;103206.84;;;5.65;50.28
35918;BME280;22011;59.912;30.300;2023-04-19T04:05:11;103220.16;;;5.64;50.50
35918;BME280;22011;59.912;30.300;2023-04-19T04:07:39;103222.09;;;5.60;50.38
35918;BME280;22011;59.912;30.300;2023-04-19T04:10:09;103222.72;;;5.65;50.48
35918;BME280;22011;59.912;30.300;2023-04-19T04:12:41;103225.72;;;5.76;50.04
35918;BME280;22011;59.912;30.300;2023-04-19T04:15:13;103223.84;;;5.78;50.00
35918;BME280;22011;59.912;30.300;2023-04-19T04:17:50;103224.41;;;5.85;50.14
35918;BME280;22011;59.912;30.300;2023-04-19T04:20:20;103223.41;;;5.87;49.74
35918;BME280;22011;59.912;30.300;2023-04-19T04:22:48;103227.19;;;5.82;50.33
35918;BME280;22011;59.912;30.300;2023-04-19T04:25:20;103227.84;;;5.87;50.42
35918;BME280;22011;59.912;30.300;2023-04-19T04:27:49;103230.22;;;5.93;50.16
35918;BME280;22011;59.912;30.300;2023-04-19T04:30:19;103231.28;;;5.89;50.54
35918;BME280;22011;59.912;30.300;2023-04-19T04:32:47;103229.69;;;5.85;50.51
35918;BME280;22011;59.912;30.300;2023-04-19T04:35:17;103227.84;;;5.87;50.38
35918;BME280;22011;59.912;30.300;2023-04-19T04:37:56;103230.56;;;5.85;50.83
35918;BME280;22011;59.912;30.300;2023-04-19T04:40:26;103234.22;;;5.83;51.03
35918;BME280;22011;59.912;30.300;2023-04-19T04:42:54;103234.22;;;5.83;51.08
35918;BME280;22011;59.912;30.300;2023-04-19T04:45:22;103236.00;;;5.82;50.72
35918;BME280;22011;59.912;30.300;2023-04-19T04:47:50;103235.13;;;5.82;51.06
35918;BME280;22011;59.912;30.300;2023-04-19T04:50:18;103237.31;;;5.93;50.74
35918;BME280;22011;59.912;30.300;2023-04-19T04:52:48;103238.94;;;5.95;50.88
35918;BME280;22011;59.912;30.300;2023-04-19T04:55:21;103237.94;;;5.98;50.92
35918;BME280;22011;59.912;30.300;2023-04-19T04:57:50;103239.28;;;6.06;50.77
35918;BME280;22011;59.912;30.300;2023-04-19T05:00:24;103235.69;;;6.07;50.18
35918;BME280;22011;59.912;30.300;2023-04-19T05:03:04;103240.38;;;6.19;50.20
35918;BME280;22011;59.912;30.300;2023-04-19T05:05:36;103240.13;;;6.24;50.05
35918;BME280;22011;59.912;30.300;2023-04-19T05:08:04;103240.81;;;6.28;50.10
35918;BME280;22011;59.912;30.300;2023-04-19T05:10:31;103241.94;;;6.23;50.03
35918;BME280;22011;59.912;30.300;2023-04-19T05:13:01;103247.97;;;6.26;49.95
35918;BME280;22011;59.912;30.300;2023-04-19T05:15:29;103246.91;;;6.30;49.36
35918;BME280;22011;59.912;30.300;2023-04-19T05:17:57;103247.53;;;6.35;49.59
35918;BME280;22011;59.912;30.300;2023-04-19T05:20:26;103250.16;;;6.35;49.62
35918;BME280;22011;59.912;30.300;2023-04-19T05:23:02;103248.47;;;6.34;49.60
35918;BME280;22011;59.912;30.300;2023-04-19T05:25:31;103251.72;;;6.39;49.30
35918;BME280;22011;59.912;30.300;2023-04-19T05:28:00;103263.03;;;6.42;49.52
35918;BME280;22011;59.912;30.300;2023-04-19T05:30:34;103262.00;;;6.45;48.57
35918;BME280;22011;59.912;30.300;2023-04-19T05:33:02;103264.75;;;6.43;49.06
35918;BME280;22011;59.912;30.300;2023-04-19T05:35:30;103267.94;;;6.50;49.02
35918;BME280;22011;59.912;30.300;2023-04-19T05:37:57;103269.81;;;6.65;48.87
35918;BME280;22011;59.912;30.300;2023-04-19T05:40:25;103267.63;;;6.73;48.52
35918;BME280;22011;59.912;30.300;2023-04-19T05:42:53;103270.34;;;6.72;48.55
35918;BME280;22011;59.912;30.300;2023-04-19T05:45:24;103267.47;;;6.76;48.69
35918;BME280;22011;59.912;30.300;2023-04-19T05:47:52;103274.31;;;6.80;48.35
35918;BME280;22011;59.912;30.300;2023-04-19T05:50:40;103267.16;;;6.82;48.10
35918;BME280;22011;59.912;30.300;2023-04-19T05:53:33;103269.94;;;6.97;47.88
35918;BME280;22011;59.912;30.300;2023-04-19T05:56:01;103273.66;;;7.10;47.04
35918;BME280;22011;59.912;30.300;2023-04-19T05:58:28;103272.47;;;7.15;46.70
35918;BME280;22011;59.912;30.300;2023-04-19T06:00:57;103273.94;;;7.21;47.00
35918;BME280;22011;59.912;30.300;2023-04-19T06:03:25;103275.41;;;7.27;45.96
35918;BME280;22011;59.912;30.300;2023-04-19T06:05:52;103277.34;;;7.39;45.76
35918;BME280;22011;59.912;30.300;2023-04-19T06:08:20;103268.91;;;7.48;45.42
35918;BME280;22011;59.912;30.300;2023-04-19T06:10:47;103279.59;;;7.46;45.56
35918;BME280;22011;59.912;30.300;2023-04-19T06:13:15;103278.31;;;7.53;45.08
35918;BME280;22011;59.912;30.300;2023-04-19T06:15:42;103280.72;;;7.58;44.91
35918;BME280;22011;59.912;30.300;2023-04-19T06:18:11;103280.47;;;7.63;44.74
35918;BME280;22011;59.912;30.300;2023-04-19T06:20:39;103276.53;;;7.70;44.66
35918;BME280;22011;59.912;30.300;2023-04-19T06:23:07;103278.25;;;7.86;44.16
35918;BME280;22011;59.912;30.300;2023-04-19T06:25:35;103278.34;;;8.01;43.43
35918;BME280;22011;59.912;30.300;2023-04-19T06:28:02;103283.56;;;8.02;43.73
35918;BME280;22011;59.912;30.300;2023-04-19T06:30:30;103275.41;;;8.05;43.80
35918;BME280;22011;59.912;30.300;2023-04-19T06:32:57;103272.06;;;8.17;43.51
35918;BME280;22011;59.912;30.300;2023-04-19T06:35:26;103276.47;;;8.33;43.02
35918;BME280;22011;59.912;30.300;2023-04-19T06:37:54;103272.44;;;8.41;42.79
35918;BME280;22011;59.912;30.300;2023-04-19T06:40:21;103271.31;;;8.45;42.77
35918;BME280;22011;59.912;30.300;2023-04-19T06:42:49;103275.22;;;8.54;42.57
35918;BME280;22011;59.912;30.300;2023-04-19T06:45:16;103274.69;;;8.63;42.23
35918;BME280;22011;59.912;30.300;2023-04-19T06:47:44;103285.22;;;8.65;42.32
35918;BME280;22011;59.912;30.300;2023-04-19T06:50:12;103281.34;;;8.70;42.32
35918;BME280;22011;59.912;30.300;2023-04-19T06:52:41;103271.19;;;8.77;41.85
35918;BME280;22011;59.912;30.300;2023-04-19T06:55:08;103278.09;;;8.65;41.99
35918;BME280;22011;59.912;30.300;2023-04-19T06:57:36;103284.00;;;8.70;41.82
35918;BME280;22011;59.912;30.300;2023-04-19T07:00:05;103280.50;;;8.84;41.08
35918;BME280;22011;59.912;30.300;2023-04-19T07:02:33;103282.53;;;8.95;41.00
35918;BME280;22011;59.912;30.300;2023-04-19T07:05:00;103285.28;;;9.07;41.29
35918;BME280;22011;59.912;30.300;2023-04-19T07:07:28;103285.78;;;9.14;41.03
35918;BME280;22011;59.912;30.300;2023-04-19T07:09:57;103281.50;;;9.26;41.02
35918;BME280;22011;59.912;30.300;2023-04-19T07:12:25;103275.47;;;9.36;40.62
35918;BME280;22011;59.912;30.300;2023-04-19T07:14:52;103280.41;;;9.42;40.55
35918;BME280;22011;59.912;30.300;2023-04-19T07:17:22;103279.34;;;9.59;40.12
35918;BME280;22011;59.912;30.300;2023-04-19T07:19:49;103274.41;;;9.67;40.11
35918;BME280;22011;59.912;30.300;2023-04-19T07:22:17;103273.63;;;9.65;39.90
35918;BME280;22011;59.912;30.300;2023-04-19T07:24:44;103274.56;;;9.78;39.34
35918;BME280;22011;59.912;30.300;2023-04-19T07:27:13;103280.84;;;9.77;39.66
35918;BME280;22011;59.912;30.300;2023-04-19T07:29:41;103280.66;;;9.80;39.17
35918;BME280;22011;59.912;30.300;2023-04-19T07:32:09;103276.84;;;9.84;39.21
35918;BME280;22011;59.912;30.300;2023-04-19T07:34:36;103277.03;;;9.81;39.74
35918;BME280;22011;59.912;30.300;2023-04-19T07:37:05;103271.66;;;9.96;39.04
35918;BME280;22011;59.912;30.300;2023-04-19T07:39:33;103276.84;;;10.11;39.14
35918;BME280;22011;59.912;30.300;2023-04-19T07:42:00;103268.84;;;10.11;38.39
35918;BME280;22011;59.912;30.300;2023-04-19T07:44:29;103275.56;;;10.31;38.83
35918;BME280;22011;59.912;30.300;2023-04-19T07:46:57;103277.72;;;10.39;37.92
35918;BME280;22011;59.912;30.300;2023-04-19T07:49:24;103273.44;;;10.49;37.40
35918;BME280;22011;59.912;30.300;2023-04-19T07:51:52;103274.00;;;10.67;36.87
35918;BME280;22011;59.912;30.300;2023-04-19T07:54:19;103274.88;;;10.80;35.77
35918;BME280;22011;59.912;30.300;2023-04-19T07:56:47;103268.91;;;11.02;35.53
35918;BME280;22011;59.912;30.300;2023-04-19T07:59:14;103272.50;;;11.39;34.96
35918;BME280;22011;59.912;30.300;2023-04-19T08:01:43;103272.72;;;11.72;34.27
35918;BME280;22011;59.912;30.300;2023-04-19T08:04:11;103265.22;;;11.90;33.78
35918;BME280;22011;59.912;30.300;2023-04-19T08:06:38;103279.72;;;11.99;33.65
35918;BME280;22011;59.912;30.300;2023-04-19T08:09:06;103267.25;;;12.10;33.71
35918;BME280;22011;59.912;30.300;2023-04-19T08:11:33;103270.34;;;11.93;33.75
35918;BME280;22011;59.912;30.300;2023-04-19T08:14:01;103274.13;;;11.65;33.81
35918;BME280;22011;59.912;30.300;2023-04-19T08:16:29;103271.78;;;11.61;34.01
35918;BME280;22011;59.912;30.300;2023-04-19T08:18:57;103275.38;;;11.72;34.08
35918;BME280;22011;59.912;30.300;2023-04-19T08:21:25;103264.31;;;11.66;33.76
35918;BME280;22011;59.912;30.300;2023-04-19T08:23:52;103259.59;;;11.82;34.00
35918;BME280;22011;59.912;30.300;2023-04-19T08:26:20;103264.59;;;11.87;33.51
35918;BME280;22011;59.912;30.300;2023-04-19T08:28:47;103265.50;;;11.98;33.91
35918;BME280;22011;59.912;30.300;2023-04-19T08:31:17;103263.72;;;11.86;33.94
35918;BME280;22011;59.912;30.300;2023-04-19T08:33:46;103263.06;;;11.95;34.13
35918;BME280;22011;59.912;30.300;2023-04-19T08:36:14;103257.66;;;12.08;33.02
35918;BME280;22011;59.912;30.300;2023-04-19T08:38:42;103255.16;;;12.18;32.72
35918;BME280;22011;59.912;30.300;2023-04-19T08:41:11;103261.41;;;12.29;33.39
35918;BME280;22011;59.912;30.300;2023-04-19T08:43:41;103261.56;;;12.50;32.87
35918;BME280;22011;59.912;30.300;2023-04-19T08:46:10;103263.53;;;12.59;32.45
35918;BME280;22011;59.912;30.300;2023-04-19T08:48:39;103252.97;;;12.69;32.32
35918;BME280;22011;59.912;30.300;2023-04-19T08:51:07;103254.16;;;12.54;31.60
35918;BME280;22011;59.912;30.300;2023-04-19T08:53:38;103255.38;;;12.61;30.92
35918;BME280;22011;59.912;30.300;2023-04-19T08:56:06;103254.28;;;12.41;30.86
35918;BME280;22011;59.912;30.300;2023-04-19T08:58:34;103250.41;;;12.45;30.34
35918;BME280;22011;59.912;30.300;2023-04-19T09:01:03;103247.63;;;12.69;30.33
35918;BME280;22011;59.912;30.300;2023-04-19T09:03:31;103254.59;;;12.94;29.78
35918;BME280;22011;59.912;30.300;2023-04-19T09:05:59;103247.06;;;13.10;29.53
35918;BME280;22011;59.912;30.300;2023-04-19T09:08:28;103246.38;;;13.19;28.81
35918;BME280;22011;59.912;30.300;2023-04-19T09:10:59;103246.50;;;13.29;29.24
35918;BME280;22011;59.912;30.300;2023-04-19T09:13:28;103243.34;;;13.24;29.50
35918;BME280;22011;59.912;30.300;2023-04-19T09:15:55;103235.19;;;13.36;28.85
35918;BME280;22011;59.912;30.300;2023-04-19T09:18:25;103235.66;;;13.41;28.77
35918;BME280;22011;59.912;30.300;2023-04-19T09:20:53;103238.34;;;13.30;27.61
35918;BME280;22011;59.912;30.300;2023-04-19T09:23:23;103237.44;;;13.52;26.78
35918;BME280;22011;59.912;30.300;2023-04-19T09:25:53;103246.97;;;13.34;27.28
35918;BME280;22011;59.912;30.300;2023-04-19T09:28:23;103244.91;;;13.26;27.92
35918;BME280;22011;59.912;30.300;2023-04-19T09:30:50;103240.53;;;13.25;27.42
35918;BME280;22011;59.912;30.300;2023-04-19T09:33:30;103232.47;;;13.48;28.04
35918;BME280;22011;59.912;30.300;2023-04-19T09:35:59;103233.84;;;13.42;28.06
35918;BME280;22011;59.912;30.300;2023-04-19T09:38:27;103226.34;;;13.57;27.38
35918;BME280;22011;59.912;30.300;2023-04-19T09:41:05;103232.50;;;13.80;27.82
35918;BME280;22011;59.912;30.300;2023-04-19T09:43:34;103228.28;;;13.66;27.89
35918;BME280;22011;59.912;30.300;2023-04-19T09:46:02;103229.97;;;13.67;27.94
35918;BME280;22011;59.912;30.300;2023-04-19T09:48:29;103233.84;;;13.74;28.61
35918;BME280;22011;59.912;30.300;2023-04-19T09:50:58;103230.59;;;13.70;28.61
35918;BME280;22011;59.912;30.300;2023-04-19T09:53:27;103223.84;;;13.87;28.51
35918;BME280;22011;59.912;30.300;2023-04-19T09:55:56;103218.31;;;14.00;28.24
35918;BME280;22011;59.912;30.300;2023-04-19T09:58:23;103223.53;;;14.01;28.21
35918;BME280;22011;59.912;30.300;2023-04-19T10:00:52;103220.22;;;14.09;28.37
35918;BME280;22011;59.912;30.300;2023-04-19T10:03:23;103226.50;;;14.19;27.92
35918;BME280;22011;59.912;30.300;2023-04-19T10:05:52;103225.41;;;14.22;27.83
35918;BME280;22011;59.912;30.300;2023-04-19T10:08:20;103218.16;;;14.33;27.74
35918;BME280;22011;59.912;30.300;2023-04-19T10:10:47;103216.28;;;14.45;27.74
35918;BME280;22011;59.912;30.300;2023-04-19T10:13:20;103217.22;;;14.55;27.15
35918;BME280;22011;59.912;30.300;2023-04-19T10:15:48;103218.69;;;14.69;27.00
35918;BME280;22011;59.912;30.300;2023-04-19T10:18:17;103212.88;;;14.94;26.38
35918;BME280;22011;59.912;30.300;2023-04-19T10:20:50;103209.03;;;15.18;26.10
35918;BME280;22011;59.912;30.300;2023-04-19T10:23:19;103210.22;;;15.04;25.79
35918;BME280;22011;59.912;30.300;2023-04-19T10:25:48;103204.09;;;14.92;25.24
35918;BME280;22011;59.912;30.300;2023-04-19T10:28:15;103202.31;;;14.72;25.24
35918;BME280;22011;59.912;30.300;2023-04-19T10:30:53;103200.53;;;14.82;25.59
35918;BME280;22011;59.912;30.300;2023-04-19T10:33:26;103198.84;;;14.60;26.16
35918;BME280;22011;59.912;30.300;2023-04-19T10:35:55;103194.34;;;14.40;25.63
35918;BME280;22011;59.912;30.300;2023-04-19T10:38:37;103200.56;;;14.61;25.69
35918;BME280;22011;59.912;30.300;2023-04-19T10:41:05;103199.44;;;14.22;25.56
35918;BME280;22011;59.912;30.300;2023-04-19T10:43:37;103199.38;;;14.13;25.89
35918;BME280;22011;59.912;30.300;2023-04-19T10:46:07;103198.84;;;14.19;25.53
35918;BME280;22011;59.912;30.300;2023-04-19T10:48:38;103190.63;;;14.31;25.78
35918;BME280;22011;59.912;30.300;2023-04-19T10:51:13;103195.56;;;14.47;25.90
35918;BME280;22011;59.912;30.300;2023-04-19T10:53:52;103196.19;;;14.39;26.04
35918;BME280;22011;59.912;30.300;2023-04-19T10:56:22;103191.31;;;14.13;26.58
35918;BME280;22011;59.912;30.300;2023-04-19T10:59:15;103194.16;;;14.32;25.74
35918;BME280;22011;59.912;30.300;2023-04-19T11:01:53;103192.06;;;14.35;25.99
35918;BME280;22011;59.912;30.300;2023-04-19T11:07:19;103187.00;;;14.21;25.03
35918;BME280;22011;59.912;30.300;2023-04-19T11:09:47;103194.94;;;14.23;24.86
35918;BME280;22011;59.912;30.300;2023-04-19T11:12:18;103187.59;;;14.25;24.79
35918;BME280;22011;59.912;30.300;2023-04-19T11:14:46;103181.13;;;14.27;25.07
35918;BME280;22011;59.912;30.300;2023-04-19T11:17:15;103187.59;;;14.25;25.10
35918;BME280;22011;59.912;30.300;2023-04-19T11:19:52;103185.00;;;14.34;24.98
35918;BME280;22011;59.912;30.300;2023-04-19T11:22:24;103181.84;;;14.08;25.32
35918;BME280;22011;59.912;30.300;2023-04-19T11:24:52;103183.97;;;13.94;25.34
35918;BME280;22011;59.912;30.300;2023-04-19T11:27:20;103184.22;;;13.91;25.71
35918;BME280;22011;59.912;30.300;2023-04-19T11:29:47;103177.50;;;13.96;25.90
35918;BME280;22011;59.912;30.300;2023-04-19T11:32:15;103176.09;;;14.13;25.70
35918;BME280;22011;59.912;30.300;2023-04-19T11:34:42;103178.13;;;14.21;25.38
35918;BME280;22011;59.912;30.300;2023-04-19T11:37:11;103182.91;;;14.17;25.59
35918;BME280;22011;59.912;30.300;2023-04-19T11:39:45;103184.41;;;14.31;25.45
35918;BME280;22011;59.912;30.300;2023-04-19T11:42:17;103182.13;;;14.26;25.36
35918;BME280;22011;59.912;30.300;2023-04-19T11:44:49;103174.06;;;14.26;25.10
35918;BME280;22011;59.912;30.300;2023-04-19T11:47:17;103176.41;;;14.20;24.80
35918;BME280;22011;59.912;30.300;2023-04-19T11:49:45;103181.53;;;14.23;24.94
35918;BME280;22011;59.912;30.300;2023-04-19T11:52:19;103181.84;;;14.29;24.70
35918;BME280;22011;59.912;30.300;2023-04-19T11:54:47;103174.59;;;14.20;24.94
35918;BME280;22011;59.912;30.300;2023-04-19T11:57:26;103180.59;;;14.33;25.20
35918;BME280;22011;59.912;30.300;2023-04-19T12:00:04;103184.78;;;14.26;24.85
35918;BME280;22011;59.912;30.300;2023-04-19T12:02:41;103182.03;;;14.17;24.50
35918;BME280;22011;59.912;30.300;2023-04-19T12:05:10;103184.78;;;14.05;24.82
35918;BME280;22011;59.912;30.300;2023-04-19T12:08:03;103177.72;;;14.25;25.29
35918;BME280;22011;59.912;30.300;2023-04-19T12:10:32;103179.28;;;14.07;24.78
35918;BME280;22011;59.912;30.300;2023-04-19T12:13:00;103174.50;;;14.11;24.64
35918;BME280;22011;59.912;30.300;2023-04-19T12:15:41;103167.72;;;14.27;25.00
35918;BME280;22011;59.912;30.300;2023-04-19T12:18:09;103160.78;;;14.04;25.24
35918;BME280;22011;59.912;30.300;2023-04-19T12:20:37;103164.63;;;13.90;25.17
35918;BME280;22011;59.912;30.300;2023-04-19T12:23:06;103164.38;;;13.93;25.39
35918;BME280;22011;59.912;30.300;2023-04-19T12:25:36;103162.97;;;13.78;25.29
35918;BME280;22011;59.912;30.300;2023-04-19T12:28:04;103156.88;;;13.76;25.84
35918;BME280;22011;59.912;30.300;2023-04-19T12:30:31;103152.72;;;13.83;25.19
35918;BME280;22011;59.912;30.300;2023-04-19T12:33:00;103156.84;;;13.87;25.69
35918;BME280;22011;59.912;30.300;2023-04-19T12:35:27;103153.50;;;13.95;25.30
35918;BME280;22011;59.912;30.300;2023-04-19T12:37:56;103157.50;;;14.00;25.02
35918;BME280;22011;59.912;30.300;2023-04-19T12:40:26;103153.59;;;14.04;25.33
35918;BME280;22011;59.912;30.300;2023-04-19T12:42:53;103154.88;;;13.89;25.76
35918;BME280;22011;59.912;30.300;2023-04-19T12:45:21;103149.25;;;13.92;25.23
35918;BME280;22011;59.912;30.300;2023-04-19T12:47:49;103149.66;;;14.08;25.51
35918;BME280;22011;59.912;30.300;2023-04-19T12:50:16;103140.91;;;14.06;25.69
35918;BME280;22011;59.912;30.300;2023-04-19T12:52:44;103145.22;;;13.98;26.37
35918;BME280;22011;59.912;30.300;2023-04-19T12:55:12;103142.97;;;13.82;26.70
35918;BME280;22011;59.912;30.300;2023-04-19T12:57:41;103148.81;;;13.87;26.44
35918;BME280;22011;59.912;30.300;2023-04-19T13:00:09;103142.59;;;13.87;26.19